createdAt,value
2022-12-11T00:01:53.437Z,1011.32
2022-12-11T00:04:06.893Z,1011.31
2022-12-11T00:06:20.469Z,1011.28
2022-12-11T00:08:34.147Z,1011.26
2022-12-11T00:10:52.167Z,1011.25
2022-12-11T00:13:04.267Z,1011.18
2022-12-11T00:15:17.816Z,1011.21
2022-12-11T00:17:29.961Z,1011.22
2022-12-11T00:19:43.546Z,1011.17
2022-12-11T00:22:01.698Z,1011.21
2022-12-11T00:24:17.275Z,1011.20
2022-12-11T00:26:30.827Z,1011.13
2022-12-11T00:28:46.362Z,1011.09
2022-12-11T00:31:01.983Z,1011.00
2022-12-11T00:33:15.535Z,1010.94
2022-12-11T00:35:31.129Z,1010.95
2022-12-11T00:37:43.252Z,1010.90
2022-12-11T00:39:56.862Z,1010.96
2022-12-11T00:42:10.522Z,1010.93
2022-12-11T00:44:25.038Z,1010.87
2022-12-11T00:46:38.642Z,1010.94
2022-12-11T00:48:52.315Z,1010.93
2022-12-11T00:51:10.410Z,1010.92
2022-12-11T00:53:25.925Z,1010.91
2022-12-11T00:55:39.071Z,1010.93
2022-12-11T00:57:52.869Z,1010.98
2022-12-11T01:00:06.533Z,1010.96
2022-12-11T01:02:17.704Z,1010.94
2022-12-11T01:04:31.310Z,1010.92
2022-12-11T01:06:45.082Z,1010.91
2022-12-11T01:08:57.983Z,1010.91
2022-12-11T01:11:13.557Z,1010.84
2022-12-11T01:13:27.160Z,1010.91
2022-12-11T01:15:45.290Z,1010.90
2022-12-11T01:18:00.874Z,1010.91
2022-12-11T01:20:14.523Z,1010.95
2022-12-11T01:22:28.847Z,1010.95
2022-12-11T01:24:43.904Z,1010.94
2022-12-11T01:26:57.609Z,1010.97
2022-12-11T01:29:11.137Z,1011.01
2022-12-11T01:31:24.223Z,1010.99
2022-12-11T01:33:37.801Z,1011.04
2022-12-11T01:35:51.420Z,1011.04
2022-12-11T01:38:06.003Z,1011.06
2022-12-11T01:40:18.693Z,1011.01
2022-12-11T01:42:32.222Z,1011.01
2022-12-11T01:44:45.839Z,1010.98
2022-12-11T01:46:57.917Z,1010.95
2022-12-11T01:49:16.110Z,1010.87
2022-12-11T01:51:29.598Z,1010.89
2022-12-11T01:53:43.226Z,1010.92
2022-12-11T01:55:58.871Z,1010.96
2022-12-11T01:58:11.952Z,1010.93
2022-12-11T02:00:26.781Z,1011.02
2022-12-11T02:02:39.051Z,1011.02
2022-12-11T02:04:54.474Z,1010.98
2022-12-11T02:07:06.601Z,1010.98
2022-12-11T02:09:19.698Z,1010.91
2022-12-11T02:11:33.498Z,1010.97
2022-12-11T02:13:48.938Z,1010.94
2022-12-11T02:16:07.558Z,1010.92
2022-12-11T02:18:20.831Z,1010.91
2022-12-11T02:20:38.979Z,1010.95
2022-12-11T02:22:52.050Z,1011.00
2022-12-11T02:25:07.836Z,1011.02
2022-12-11T02:27:23.196Z,1011.06
2022-12-11T02:29:36.776Z,1011.01
2022-12-11T02:31:54.973Z,1010.98
2022-12-11T02:34:08.027Z,1010.97
2022-12-11T02:36:21.601Z,1010.98
2022-12-11T02:38:37.200Z,1010.92
2022-12-11T02:40:49.287Z,1010.92
2022-12-11T02:43:01.387Z,1010.86
2022-12-11T02:45:13.590Z,1010.96
2022-12-11T02:47:27.060Z,1010.94
2022-12-11T02:49:42.654Z,1010.94
2022-12-11T02:52:01.345Z,1010.92
2022-12-11T02:54:19.809Z,1010.92
2022-12-11T02:56:37.979Z,1010.99
2022-12-11T02:58:56.804Z,1010.95
2022-12-11T03:01:05.196Z,1010.94
2022-12-11T03:03:18.775Z,1010.92
2022-12-11T03:05:40.002Z,1010.91
2022-12-11T03:07:56.011Z,1010.96
2022-12-11T03:10:09.558Z,1010.94
2022-12-11T03:12:27.752Z,1010.90
2022-12-11T03:14:39.850Z,1010.94
2022-12-11T03:16:55.330Z,1010.93
2022-12-11T03:19:13.467Z,1010.98
2022-12-11T03:21:27.199Z,1010.99
2022-12-11T03:23:39.148Z,1010.97
2022-12-11T03:25:53.778Z,1011.01
2022-12-11T03:28:09.348Z,1010.98
2022-12-11T03:30:27.566Z,1011.00
2022-12-11T03:32:43.082Z,1011.00
2022-12-11T03:34:58.452Z,1010.99
2022-12-11T03:37:08.779Z,1011.02
2022-12-11T03:39:23.398Z,1011.02
2022-12-11T03:41:36.986Z,1010.98
2022-12-11T03:43:55.073Z,1011.02
2022-12-11T03:46:08.697Z,1010.99
2022-12-11T03:48:26.754Z,1010.94
2022-12-11T03:50:40.338Z,1010.96
2022-12-11T03:52:54.030Z,1010.96
2022-12-11T03:55:09.916Z,1010.92
2022-12-11T03:57:23.138Z,1011.00
2022-12-11T03:59:41.233Z,1010.98
2022-12-11T04:01:59.486Z,1010.97
2022-12-11T04:04:15.047Z,1010.97
2022-12-11T04:06:29.529Z,1010.99
2022-12-11T04:08:47.708Z,1010.99
2022-12-11T04:11:01.335Z,1010.96
2022-12-11T04:13:13.476Z,1011.00
2022-12-11T04:15:31.652Z,1010.97
2022-12-11T04:17:45.151Z,1011.05
2022-12-11T04:20:03.155Z,1010.95
2022-12-11T04:22:22.346Z,1010.96
2022-12-11T04:24:40.376Z,1010.94
2022-12-11T04:26:53.953Z,1010.95
2022-12-11T04:29:07.000Z,1010.90
2022-12-11T04:31:25.209Z,1010.99
2022-12-11T04:33:43.213Z,1010.95
2022-12-11T04:35:56.833Z,1010.94
2022-12-11T04:38:15.533Z,1010.94
2022-12-11T04:40:30.496Z,1010.90
2022-12-11T04:42:42.600Z,1010.90
2022-12-11T04:44:58.172Z,1010.93
2022-12-11T04:47:11.770Z,1010.92
2022-12-11T04:49:25.920Z,1010.88
2022-12-11T04:51:40.993Z,1010.94
2022-12-11T04:53:57.133Z,1010.89
2022-12-11T04:56:15.423Z,1010.85
2022-12-11T04:58:29.116Z,1010.90
2022-12-11T05:00:47.137Z,1010.95
2022-12-11T05:03:05.221Z,1010.90
2022-12-11T05:05:21.663Z,1010.89
2022-12-11T05:07:38.877Z,1010.88
2022-12-11T05:09:59.575Z,1010.87
2022-12-11T05:12:14.235Z,1010.83
2022-12-11T05:14:29.684Z,1010.81
2022-12-11T05:16:47.781Z,1010.78
2022-12-11T05:19:03.466Z,1010.75
2022-12-11T05:21:15.494Z,1010.71
2022-12-11T05:23:31.095Z,1010.73
2022-12-11T05:25:44.672Z,1010.71
2022-12-11T05:27:56.773Z,1010.68
2022-12-11T05:30:11.360Z,1010.63
2022-12-11T05:32:31.977Z,1010.63
2022-12-11T05:34:48.571Z,1010.58
2022-12-11T05:37:01.453Z,1010.56
2022-12-11T05:39:14.338Z,1010.53
2022-12-11T05:41:30.767Z,1010.55
2022-12-11T05:43:47.377Z,1010.46
2022-12-11T05:46:05.499Z,1010.49
2022-12-11T05:48:19.042Z,1010.48
2022-12-11T05:50:32.115Z,1010.54
2022-12-11T05:52:48.008Z,1010.66
2022-12-11T05:54:59.846Z,1010.70
2022-12-11T05:57:18.019Z,1010.65
2022-12-11T05:59:31.522Z,1010.60
2022-12-11T06:01:45.572Z,1010.62
2022-12-11T06:04:00.733Z,1010.63
2022-12-11T06:06:19.421Z,1010.60
2022-12-11T06:08:31.903Z,1010.57
2022-12-11T06:10:48.325Z,1010.57
2022-12-11T06:12:59.689Z,1010.59
2022-12-11T06:15:16.002Z,1010.58
2022-12-11T06:17:28.787Z,1010.51
2022-12-11T06:19:42.339Z,1010.53
2022-12-11T06:21:57.988Z,1010.49
2022-12-11T06:24:11.874Z,1010.53
2022-12-11T06:26:25.034Z,1010.49
2022-12-11T06:28:37.116Z,1010.48
2022-12-11T06:30:52.734Z,1010.59
2022-12-11T06:33:07.146Z,1010.57
2022-12-11T06:35:19.903Z,1010.58
2022-12-11T06:37:32.005Z,1010.60
2022-12-11T06:39:44.109Z,1010.48
2022-12-11T06:41:58.202Z,1010.57
2022-12-11T06:44:10.306Z,1010.57
2022-12-11T06:46:23.422Z,1010.60
2022-12-11T06:48:38.955Z,1010.61
2022-12-11T06:50:54.597Z,1010.64
2022-12-11T06:53:12.675Z,1010.65
2022-12-11T06:55:30.794Z,1010.67
2022-12-11T06:57:47.410Z,1010.65
2022-12-11T07:00:05.506Z,1010.62
2022-12-11T07:05:19.428Z,1010.66
2022-12-11T07:07:34.146Z,1010.64
2022-12-11T07:09:52.232Z,1010.63
2022-12-11T07:12:07.836Z,1010.65
2022-12-11T07:14:23.444Z,1010.72
2022-12-11T07:16:40.332Z,1010.68
2022-12-11T07:18:55.889Z,1010.71
2022-12-11T07:21:09.466Z,1010.70
2022-12-11T07:23:25.069Z,1010.74
2022-12-11T07:25:38.697Z,1010.73
2022-12-11T07:27:52.281Z,1010.72
2022-12-11T07:30:07.989Z,1010.70
2022-12-11T07:32:23.658Z,1010.74
2022-12-11T07:34:38.031Z,1010.69
2022-12-11T07:36:50.189Z,1010.66
2022-12-11T07:39:03.364Z,1010.60
2022-12-11T07:41:21.494Z,1010.66
2022-12-11T07:43:37.002Z,1010.72
2022-12-11T07:45:55.180Z,1010.80
2022-12-11T07:48:08.690Z,1010.76
2022-12-11T07:50:27.780Z,1010.76
2022-12-11T07:52:42.415Z,1010.78
2022-12-11T07:54:59.032Z,1010.72
2022-12-11T07:57:14.718Z,1010.75
2022-12-11T07:59:29.275Z,1010.85
2022-12-11T08:01:43.902Z,1010.93
2022-12-11T08:03:59.439Z,1010.90
2022-12-11T08:06:15.010Z,1010.81
2022-12-11T08:08:30.619Z,1010.75
2022-12-11T08:10:44.189Z,1010.72
2022-12-11T08:12:59.836Z,1010.87
2022-12-11T08:15:14.426Z,1010.91
2022-12-11T08:17:52.118Z,1010.88
2022-12-11T08:20:09.994Z,1010.92
2022-12-11T08:22:28.046Z,1010.94
2022-12-11T08:24:47.118Z,1010.99
2022-12-11T08:27:05.725Z,1010.98
2022-12-11T08:29:23.596Z,1010.98
2022-12-11T08:40:21.967Z,1010.88
2022-12-11T08:44:20.937Z,1010.80
2022-12-11T09:00:36.219Z,1010.72
2022-12-11T09:18:10.132Z,1010.97
2022-12-11T09:43:37.493Z,1010.78
2022-12-11T09:45:55.442Z,1010.78
2022-12-11T09:48:13.472Z,1010.79
2022-12-11T09:50:31.570Z,1010.70
2022-12-11T09:52:48.150Z,1010.67
2022-12-11T09:55:04.773Z,1010.69
2022-12-11T09:57:22.839Z,1010.68
2022-12-11T09:59:43.459Z,1010.68
2022-12-11T10:02:01.645Z,1010.66
2022-12-11T10:04:19.631Z,1010.56
2022-12-11T10:06:36.301Z,1010.55
2022-12-11T10:08:49.824Z,1010.58
2022-12-11T10:11:10.552Z,1010.63
2022-12-11T10:13:28.534Z,1010.60
2022-12-11T10:15:43.333Z,1010.58
2022-12-11T10:18:04.388Z,1010.50
2022-12-11T10:20:16.203Z,1010.54
2022-12-11T10:22:34.111Z,1010.51
2022-12-11T10:29:14.167Z,1010.38
2022-12-11T10:31:52.224Z,1010.36
2022-12-11T10:34:12.780Z,1010.40
2022-12-11T10:36:31.047Z,1010.35
2022-12-11T10:38:49.240Z,1010.32
2022-12-11T10:42:50.481Z,1010.33
2022-12-11T10:45:06.049Z,1010.34
2022-12-11T10:47:24.385Z,1010.39
2022-12-11T10:49:49.530Z,1010.40
2022-12-11T10:56:15.984Z,1010.43
2022-12-11T11:06:34.901Z,1010.33
2022-12-11T11:09:05.876Z,1010.28
2022-12-11T11:12:57.046Z,1010.27
2022-12-11T11:16:57.733Z,1010.12
2022-12-11T11:19:16.435Z,1010.07
2022-12-11T11:22:23.148Z,1010.08
2022-12-11T11:24:32.962Z,1010.05
2022-12-11T11:27:12.683Z,1010.02
2022-12-11T11:27:51.227Z,1010.00
2022-12-11T11:30:11.989Z,1009.97
2022-12-11T11:32:31.250Z,1009.88
2022-12-11T11:34:48.409Z,1009.86
2022-12-11T11:37:06.611Z,1009.79
2022-12-11T11:39:24.489Z,1009.78
2022-12-11T11:41:38.984Z,1009.78
2022-12-11T11:44:04.541Z,1009.81
2022-12-11T11:46:21.243Z,1009.80
2022-12-11T11:48:37.988Z,1009.82
2022-12-11T11:50:59.690Z,1009.83
2022-12-11T11:53:17.704Z,1009.77
2022-12-11T11:55:35.171Z,1009.78
2022-12-11T11:57:53.539Z,1009.73
2022-12-11T12:00:08.891Z,1009.75
2022-12-11T12:02:29.051Z,1009.76
2022-12-11T12:04:54.004Z,1009.75
2022-12-11T12:05:54.204Z,1009.74
2022-12-11T12:08:15.377Z,1009.76
2022-12-11T12:10:52.559Z,1009.74
2022-12-11T12:13:44.787Z,1009.70
2022-12-11T12:14:50.471Z,1009.63
2022-12-11T12:15:42.926Z,1009.65
2022-12-11T14:31:58.383Z,1009.38
2022-12-11T14:34:15.787Z,1009.44
2022-12-11T14:36:48.420Z,1009.40
2022-12-11T14:39:43.309Z,1009.41
2022-12-11T14:42:15.892Z,1009.44
2022-12-11T14:44:46.692Z,1009.38
2022-12-11T14:47:20.576Z,1009.42
2022-12-11T14:50:37.786Z,1009.32
2022-12-11T14:52:54.205Z,1009.33
2022-12-11T14:55:10.600Z,1009.29
2022-12-11T14:57:32.793Z,1009.37
2022-12-11T14:59:49.439Z,1009.34
2022-12-11T15:02:18.680Z,1009.27
2022-12-11T15:04:35.225Z,1009.16
2022-12-11T15:06:53.001Z,1009.15
2022-12-11T15:09:35.757Z,1009.14
2022-12-11T15:11:58.697Z,1009.22
2022-12-11T15:14:15.618Z,1009.22
2022-12-11T15:16:32.213Z,1009.17
2022-12-11T15:18:48.700Z,1009.24
2022-12-11T15:21:03.945Z,1009.25
2022-12-11T15:23:22.394Z,1009.30
2022-12-11T15:25:42.647Z,1009.36
2022-12-11T15:28:02.926Z,1009.39
2022-12-11T15:30:21.537Z,1009.41
2022-12-11T15:34:58.550Z,1009.42
2022-12-11T15:40:48.059Z,1009.39
2022-12-11T15:43:34.024Z,1009.41
2022-12-11T15:46:09.553Z,1009.38
2022-12-11T15:48:43.262Z,1009.39
2022-12-11T15:51:18.855Z,1009.41
2022-12-11T16:02:32.556Z,1009.29
2022-12-11T16:04:59.372Z,1009.34
2022-12-11T16:10:55.500Z,1009.43
2022-12-11T16:19:09.033Z,1009.34
2022-12-11T16:25:59.220Z,1009.35
2022-12-11T16:28:44.987Z,1009.31
2022-12-11T16:34:03.210Z,1009.35
2022-12-11T16:36:59.885Z,1009.38
2022-12-11T16:42:44.301Z,1009.35
2022-12-11T16:45:20.980Z,1009.31
2022-12-11T16:47:48.057Z,1009.32
2022-12-11T16:50:26.837Z,1009.36
2022-12-11T16:54:04.291Z,1009.26
2022-12-11T16:56:23.933Z,1009.30
2022-12-11T17:03:34.633Z,1009.29
2022-12-11T17:05:52.683Z,1009.32
2022-12-11T17:08:09.495Z,1009.34
2022-12-11T17:10:41.001Z,1009.33
2022-12-11T17:12:58.012Z,1009.31
2022-12-11T17:15:19.695Z,1009.33
2022-12-11T17:20:35.428Z,1009.37
2022-12-11T17:23:24.889Z,1009.37
2022-12-11T17:26:16.360Z,1009.38
2022-12-11T17:28:32.867Z,1009.31
2022-12-11T17:30:49.546Z,1009.32
2022-12-11T17:33:08.615Z,1009.32
2022-12-11T17:35:23.155Z,1009.29
2022-12-11T17:37:44.596Z,1009.25
2022-12-11T17:46:08.261Z,1009.30
2022-12-11T17:52:05.303Z,1009.30
2022-12-11T17:54:34.276Z,1009.25
2022-12-11T17:56:50.161Z,1009.23
2022-12-11T18:00:07.597Z,1009.23
2022-12-11T18:03:15.751Z,1009.22
2022-12-11T18:08:42.809Z,1009.26
2022-12-11T18:12:45.718Z,1009.27
2022-12-11T18:15:31.827Z,1009.23
2022-12-11T18:37:59.669Z,1009.17
2022-12-11T18:41:00.708Z,1009.24
2022-12-11T19:14:53.381Z,1009.17
2022-12-11T19:36:06.666Z,1009.18
2022-12-11T19:41:38.030Z,1009.29
2022-12-11T19:43:36.642Z,1009.31
2022-12-11T19:47:07.112Z,1009.28
2022-12-11T19:51:01.387Z,1009.31
2022-12-11T19:52:54.336Z,1009.30
2022-12-11T19:55:13.452Z,1009.31
2022-12-11T19:57:38.536Z,1009.24
2022-12-11T19:59:42.162Z,1009.22
2022-12-11T20:01:59.170Z,1009.15
2022-12-11T20:26:11.411Z,1009.02
2022-12-11T20:28:23.489Z,1009.01
2022-12-11T20:30:39.063Z,1009.05
2022-12-11T20:32:54.641Z,1009.03
2022-12-11T20:35:10.552Z,1008.97
2022-12-11T20:37:31.101Z,1008.93
2022-12-11T20:39:42.403Z,1008.85
2022-12-11T20:41:58.031Z,1008.86
2022-12-11T20:44:25.996Z,1008.86
2022-12-11T20:46:43.744Z,1008.92
2022-12-11T20:48:49.876Z,1008.89
2022-12-11T20:56:32.642Z,1008.98
2022-12-11T21:00:58.814Z,1009.02
2022-12-11T21:03:18.349Z,1008.99
2022-12-11T21:05:43.280Z,1008.99
2022-12-11T21:07:43.008Z,1008.98
2022-12-11T21:09:59.152Z,1009.02
2022-12-11T21:12:10.690Z,1009.07
2022-12-11T21:14:27.277Z,1009.04
2022-12-11T21:16:42.937Z,1009.02
2022-12-11T21:18:58.044Z,1009.02
2022-12-11T21:21:18.118Z,1009.07
2022-12-11T21:23:33.772Z,1009.06
2022-12-11T21:25:49.288Z,1009.06
2022-12-11T21:28:04.915Z,1009.05
2022-12-11T21:30:18.546Z,1009.03
2022-12-11T21:32:31.569Z,1009.03
2022-12-11T21:34:47.166Z,1009.03
2022-12-11T21:36:59.816Z,1009.04
2022-12-11T21:39:18.368Z,1009.03
2022-12-11T21:41:32.025Z,1009.04
2022-12-11T21:44:19.242Z,1009.01
2022-12-11T21:46:01.835Z,1009.03
2022-12-11T21:47:59.209Z,1009.03
2022-12-11T21:50:12.255Z,1009.03
2022-12-11T21:52:24.337Z,1008.95
2022-12-11T21:54:38.974Z,1009.01
2022-12-11T21:56:51.530Z,1008.96
2022-12-11T21:59:05.162Z,1008.99
2022-12-11T22:01:17.313Z,1009.02
2022-12-11T22:03:33.336Z,1008.98
2022-12-11T22:05:49.287Z,1008.99
2022-12-11T22:08:02.391Z,1008.93
2022-12-11T22:10:13.457Z,1008.91
2022-12-11T22:12:25.592Z,1008.90
2022-12-11T22:14:39.142Z,1008.97
2022-12-11T22:16:53.821Z,1008.99
2022-12-11T22:19:09.417Z,1008.96
2022-12-11T22:21:26.301Z,1008.97
2022-12-11T22:23:43.870Z,1008.94
2022-12-11T22:25:58.115Z,1008.96
2022-12-11T22:28:12.197Z,1008.91
2022-12-11T22:30:24.355Z,1008.92
2022-12-11T22:32:37.947Z,1008.95
2022-12-11T22:34:51.611Z,1008.92
2022-12-11T22:37:09.591Z,1008.93
2022-12-11T22:39:23.178Z,1008.95
2022-12-11T22:41:37.348Z,1008.94
2022-12-11T22:43:49.450Z,1008.93
2022-12-11T22:46:02.045Z,1008.93
2022-12-11T22:48:15.706Z,1008.92
2022-12-11T22:50:31.192Z,1009.00
2022-12-11T22:52:48.216Z,1008.99
2022-12-11T22:55:02.393Z,1009.01
2022-12-11T22:57:15.980Z,1009.02
2022-12-11T22:59:33.233Z,1009.01
2022-12-11T23:01:47.311Z,1008.94
2022-12-11T23:04:05.399Z,1008.93
2022-12-11T23:06:23.366Z,1008.97
2022-12-11T23:08:34.812Z,1008.96
2022-12-11T23:10:51.025Z,1008.96
2022-12-11T23:13:06.956Z,1008.98
2022-12-11T23:15:21.471Z,1008.95
2022-12-11T23:17:37.723Z,1008.97
2022-12-11T23:19:50.631Z,1008.98
2022-12-11T23:22:06.249Z,1008.98
2022-12-11T23:24:22.470Z,1008.97
2022-12-11T23:26:38.380Z,1008.98
2022-12-11T23:28:51.996Z,1008.97
2022-12-11T23:31:06.229Z,1008.96
2022-12-11T23:33:19.207Z,1008.97
2022-12-11T23:35:34.955Z,1008.99
2022-12-11T23:37:48.520Z,1009.04
2022-12-11T23:40:01.997Z,1009.00
2022-12-11T23:42:17.595Z,1008.97
2022-12-11T23:44:29.782Z,1008.96
2022-12-11T23:46:45.343Z,1009.01
2022-12-11T23:49:00.879Z,1009.00
2022-12-11T23:51:17.317Z,1009.04
2022-12-11T23:53:32.157Z,1009.05
2022-12-11T23:55:46.737Z,1009.03
2022-12-11T23:58:00.201Z,1008.98
